sensor_id;sensor_type;location;lat;lon;timestamp;temperature;humidity
2873;DHT22;1444;49.166;7.312;2023-03-01T00:03:43;1.40;84.40
2873;DHT22;1444;49.166;7.312;2023-03-01T00:06:12;1.40;84.30
2873;DHT22;1444;49.166;7.312;2023-03-01T00:11:08;1.40;84.40
2873;DHT22;1444;49.166;7.312;2023-03-01T00:16:04;1.40;84.30
2873;DHT22;1444;49.166;7.312;2023-03-01T00:18:31;1.50;84.50
2873;DHT22;1444;49.166;7.312;2023-03-01T00:20:58;1.40;84.20
2873;DHT22;1444;49.166;7.312;2023-03-01T00:25:53;1.40;84.20
2873;DHT22;1444;49.166;7.312;2023-03-01T00:28:20;1.40;84.40
2873;DHT22;1444;49.166;7.312;2023-03-01T00:30:48;1.40;84.40
2873;DHT22;1444;49.166;7.312;2023-03-01T00:35:42;1.40;84.30
2873;DHT22;1444;49.166;7.312;2023-03-01T00:38:08;1.30;84.20
2873;DHT22;1444;49.166;7.312;2023-03-01T00:40:36;1.30;84.40
2873;DHT22;1444;49.166;7.312;2023-03-01T00:43:03;1.20;84.40
2873;DHT22;1444;49.166;7.312;2023-03-01T00:47:58;1.20;84.50
2873;DHT22;1444;49.166;7.312;2023-03-01T00:50:25;1.20;84.80
2873;DHT22;1444;49.166;7.312;2023-03-01T00:52:52;1.10;85.50
2873;DHT22;1444;49.166;7.312;2023-03-01T00:55:19;1.20;85.70
2873;DHT22;1444;49.166;7.312;2023-03-01T00:57:47;1.20;85.40
2873;DHT22;1444;49.166;7.312;2023-03-01T01:00:15;1.20;85.00
2873;DHT22;1444;49.166;7.312;2023-03-01T01:02:42;1.10;85.00
2873;DHT22;1444;49.166;7.312;2023-03-01T01:05:09;1.10;85.80
2873;DHT22;1444;49.166;7.312;2023-03-01T01:10:03;0.90;86.10
2873;DHT22;1444;49.166;7.312;2023-03-01T01:12:30;0.80;86.10
2873;DHT22;1444;49.166;7.312;2023-03-01T01:14:58;0.80;86.10
2873;DHT22;1444;49.166;7.312;2023-03-01T01:19:52;0.90;86.10
2873;DHT22;1444;49.166;7.312;2023-03-01T01:24:45;0.80;85.60
2873;DHT22;1444;49.166;7.312;2023-03-01T01:27:12;0.90;85.90
2873;DHT22;1444;49.166;7.312;2023-03-01T01:29:39;0.90;85.90
2873;DHT22;1444;49.166;7.312;2023-03-01T01:32:08;0.80;85.70
2873;DHT22;1444;49.166;7.312;2023-03-01T01:34:35;0.80;86.00
2873;DHT22;1444;49.166;7.312;2023-03-01T01:37:02;0.80;86.10
2873;DHT22;1444;49.166;7.312;2023-03-01T01:39:29;0.80;86.00
2873;DHT22;1444;49.166;7.312;2023-03-01T01:44:25;0.90;86.30
2873;DHT22;1444;49.166;7.312;2023-03-01T01:46:54;0.90;86.40
2873;DHT22;1444;49.166;7.312;2023-03-01T01:49:28;0.90;86.20
2873;DHT22;1444;49.166;7.312;2023-03-01T01:52:02;0.90;86.10
2873;DHT22;1444;49.166;7.312;2023-03-01T01:54:37;0.90;86.00
2873;DHT22;1444;49.166;7.312;2023-03-01T02:02:03;0.90;85.90
2873;DHT22;1444;49.166;7.312;2023-03-01T02:04:32;0.90;86.10
2873;DHT22;1444;49.166;7.312;2023-03-01T02:07:02;0.80;86.50
2873;DHT22;1444;49.166;7.312;2023-03-01T02:09:30;0.80;86.50
2873;DHT22;1444;49.166;7.312;2023-03-01T02:11:58;0.80;86.30
2873;DHT22;1444;49.166;7.312;2023-03-01T02:19:28;0.80;86.50
2873;DHT22;1444;49.166;7.312;2023-03-01T02:22:02;0.80;86.50
2873;DHT22;1444;49.166;7.312;2023-03-01T02:24:40;0.80;86.30
2873;DHT22;1444;49.166;7.312;2023-03-01T02:27:13;0.80;86.40
2873;DHT22;1444;49.166;7.312;2023-03-01T02:32:11;0.60;86.90
2873;DHT22;1444;49.166;7.312;2023-03-01T02:34:38;0.60;87.10
2873;DHT22;1444;49.166;7.312;2023-03-01T02:37:08;0.60;87.30
2873;DHT22;1444;49.166;7.312;2023-03-01T02:39:40;0.80;87.40
2873;DHT22;1444;49.166;7.312;2023-03-01T02:42:11;0.70;87.10
2873;DHT22;1444;49.166;7.312;2023-03-01T02:47:07;0.70;87.00
2873;DHT22;1444;49.166;7.312;2023-03-01T02:49:36;0.70;86.90
2873;DHT22;1444;49.166;7.312;2023-03-01T02:52:24;0.80;87.10
2873;DHT22;1444;49.166;7.312;2023-03-01T02:54:58;0.80;86.90
2873;DHT22;1444;49.166;7.312;2023-03-01T02:57:27;0.80;86.50
2873;DHT22;1444;49.166;7.312;2023-03-01T02:59:55;0.70;87.00
2873;DHT22;1444;49.166;7.312;2023-03-01T03:02:26;0.70;87.20
2873;DHT22;1444;49.166;7.312;2023-03-01T03:05:04;0.70;86.70
2873;DHT22;1444;49.166;7.312;2023-03-01T03:09:59;0.60;87.00
2873;DHT22;1444;49.166;7.312;2023-03-01T03:12:26;0.50;87.30
2873;DHT22;1444;49.166;7.312;2023-03-01T03:19:48;0.40;87.70
2873;DHT22;1444;49.166;7.312;2023-03-01T03:22:15;0.30;87.80
2873;DHT22;1444;49.166;7.312;2023-03-01T03:24:41;0.30;87.80
2873;DHT22;1444;49.166;7.312;2023-03-01T03:32:03;0.30;87.80
2873;DHT22;1444;49.166;7.312;2023-03-01T03:34:30;0.30;87.60
2873;DHT22;1444;49.166;7.312;2023-03-01T03:39:26;0.20;87.50
2873;DHT22;1444;49.166;7.312;2023-03-01T03:41:54;0.20;87.50
2873;DHT22;1444;49.166;7.312;2023-03-01T03:44:21;0.20;87.70
2873;DHT22;1444;49.166;7.312;2023-03-01T03:49:14;0.10;88.00
2873;DHT22;1444;49.166;7.312;2023-03-01T03:54:09;0.10;88.10
2873;DHT22;1444;49.166;7.312;2023-03-01T03:56:36;0.10;88.10
2873;DHT22;1444;49.166;7.312;2023-03-01T03:59:03;0.10;88.30
2873;DHT22;1444;49.166;7.312;2023-03-01T04:03:58;0.20;88.40
2873;DHT22;1444;49.166;7.312;2023-03-01T04:06:29;0.20;87.90
2873;DHT22;1444;49.166;7.312;2023-03-01T04:08:56;0.20;87.80
2873;DHT22;1444;49.166;7.312;2023-03-01T04:11:24;0.10;88.00
2873;DHT22;1444;49.166;7.312;2023-03-01T04:13:56;0.10;88.30
2873;DHT22;1444;49.166;7.312;2023-03-01T04:16:23;0.10;88.40
2873;DHT22;1444;49.166;7.312;2023-03-01T04:18:50;0.20;88.40
2873;DHT22;1444;49.166;7.312;2023-03-01T04:21:17;0.20;88.20
2873;DHT22;1444;49.166;7.312;2023-03-01T04:26:12;0.20;88.10
2873;DHT22;1444;49.166;7.312;2023-03-01T04:28:41;0.20;88.10
2873;DHT22;1444;49.166;7.312;2023-03-01T04:31:12;0.30;88.00
2873;DHT22;1444;49.166;7.312;2023-03-01T04:36:08;0.30;88.20
2873;DHT22;1444;49.166;7.312;2023-03-01T04:38:35;0.20;88.00
2873;DHT22;1444;49.166;7.312;2023-03-01T04:41:03;0.10;88.10
2873;DHT22;1444;49.166;7.312;2023-03-01T04:43:29;0.10;88.30
2873;DHT22;1444;49.166;7.312;2023-03-01T04:46:01;0.10;88.60
2873;DHT22;1444;49.166;7.312;2023-03-01T04:48:31;0.00;88.90
2873;DHT22;1444;49.166;7.312;2023-03-01T04:50:58;-0.10;89.30
2873;DHT22;1444;49.166;7.312;2023-03-01T04:55:54;0.00;89.70
2873;DHT22;1444;49.166;7.312;2023-03-01T04:58:21;0.00;89.50
2873;DHT22;1444;49.166;7.312;2023-03-01T05:00:47;0.00;89.20
2873;DHT22;1444;49.166;7.312;2023-03-01T05:05:44;0.00;89.30
2873;DHT22;1444;49.166;7.312;2023-03-01T05:08:12;0.00;89.50
2873;DHT22;1444;49.166;7.312;2023-03-01T05:13:12;-0.10;89.80
2873;DHT22;1444;49.166;7.312;2023-03-01T05:15:40;-0.10;89.90
2873;DHT22;1444;49.166;7.312;2023-03-01T05:18:07;-0.10;90.00
2873;DHT22;1444;49.166;7.312;2023-03-01T05:20:38;-0.10;90.00
2873;DHT22;1444;49.166;7.312;2023-03-01T05:23:05;-0.10;90.00
2873;DHT22;1444;49.166;7.312;2023-03-01T05:25:32;-0.10;89.90
2873;DHT22;1444;49.166;7.312;2023-03-01T05:27:59;-0.10;89.80
2873;DHT22;1444;49.166;7.312;2023-03-01T05:30:30;0.00;89.80
2873;DHT22;1444;49.166;7.312;2023-03-01T05:35:25;0.00;89.50
2873;DHT22;1444;49.166;7.312;2023-03-01T05:37:53;0.00;89.60
2873;DHT22;1444;49.166;7.312;2023-03-01T05:40:22;0.00;89.70
2873;DHT22;1444;49.166;7.312;2023-03-01T05:42:53;0.00;89.70
2873;DHT22;1444;49.166;7.312;2023-03-01T05:45:22;0.00;90.00
2873;DHT22;1444;49.166;7.312;2023-03-01T05:47:49;-0.10;90.00
2873;DHT22;1444;49.166;7.312;2023-03-01T05:52:46;-2.00;88.60
2873;DHT22;1444;49.166;7.312;2023-03-01T05:55:15;-0.10;90.10
2873;DHT22;1444;49.166;7.312;2023-03-01T06:00:10;-0.10;90.20
2873;DHT22;1444;49.166;7.312;2023-03-01T06:02:37;-0.10;90.20
2873;DHT22;1444;49.166;7.312;2023-03-01T06:09:58;-0.20;90.30
2873;DHT22;1444;49.166;7.312;2023-03-01T06:12:28;-0.20;90.40
2873;DHT22;1444;49.166;7.312;2023-03-01T06:14:56;-0.20;90.40
2873;DHT22;1444;49.166;7.312;2023-03-01T06:17:22;-0.10;90.50
2873;DHT22;1444;49.166;7.312;2023-03-01T06:19:49;-0.10;90.50
2873;DHT22;1444;49.166;7.312;2023-03-01T06:27:10;0.00;90.40
2873;DHT22;1444;49.166;7.312;2023-03-01T06:29:38;0.00;90.40
2873;DHT22;1444;49.166;7.312;2023-03-01T06:32:05;0.10;90.50
2873;DHT22;1444;49.166;7.312;2023-03-01T06:39:30;0.20;90.30
2873;DHT22;1444;49.166;7.312;2023-03-01T06:41:57;0.20;90.30
2873;DHT22;1444;49.166;7.312;2023-03-01T06:44:24;0.30;90.30
2873;DHT22;1444;49.166;7.312;2023-03-01T06:46:52;0.30;90.30
2873;DHT22;1444;49.166;7.312;2023-03-01T06:51:46;0.40;90.20
2873;DHT22;1444;49.166;7.312;2023-03-01T06:54:13;0.40;90.20
2873;DHT22;1444;49.166;7.312;2023-03-01T06:56:40;0.40;90.20
2873;DHT22;1444;49.166;7.312;2023-03-01T06:59:07;0.50;90.20
2873;DHT22;1444;49.166;7.312;2023-03-01T07:01:33;0.50;90.20
2873;DHT22;1444;49.166;7.312;2023-03-01T07:04:01;0.60;90.20
2873;DHT22;1444;49.166;7.312;2023-03-01T07:06:28;0.60;90.10
2873;DHT22;1444;49.166;7.312;2023-03-01T07:08:55;0.70;90.20
2873;DHT22;1444;49.166;7.312;2023-03-01T07:11:21;0.70;90.20
2873;DHT22;1444;49.166;7.312;2023-03-01T07:16:15;0.80;90.20
2873;DHT22;1444;49.166;7.312;2023-03-01T07:21:12;1.70;90.60
2873;DHT22;1444;49.166;7.312;2023-03-01T07:28:34;4.60;86.20
2873;DHT22;1444;49.166;7.312;2023-03-01T07:31:03;5.60;85.00
2873;DHT22;1444;49.166;7.312;2023-03-01T07:33:31;6.30;83.40
2873;DHT22;1444;49.166;7.312;2023-03-01T07:35:58;6.90;80.80
2873;DHT22;1444;49.166;7.312;2023-03-01T07:40:57;7.80;78.00
2873;DHT22;1444;49.166;7.312;2023-03-01T07:45:51;8.40;76.60
2873;DHT22;1444;49.166;7.312;2023-03-01T07:48:18;8.60;76.10
2873;DHT22;1444;49.166;7.312;2023-03-01T07:50:44;9.00;76.60
2873;DHT22;1444;49.166;7.312;2023-03-01T07:53:11;9.40;74.80
2873;DHT22;1444;49.166;7.312;2023-03-01T07:55:39;9.90;75.20
2873;DHT22;1444;49.166;7.312;2023-03-01T07:58:05;10.10;72.10
2873;DHT22;1444;49.166;7.312;2023-03-01T08:02:59;10.50;70.70
2873;DHT22;1444;49.166;7.312;2023-03-01T08:05:27;10.70;71.10
2873;DHT22;1444;49.166;7.312;2023-03-01T08:07:53;10.80;69.80
2873;DHT22;1444;49.166;7.312;2023-03-01T08:10:20;10.90;70.10
2873;DHT22;1444;49.166;7.312;2023-03-01T08:12:51;11.00;69.80
2873;DHT22;1444;49.166;7.312;2023-03-01T08:15:17;10.90;68.30
2873;DHT22;1444;49.166;7.312;2023-03-01T08:17:44;11.00;69.50
2873;DHT22;1444;49.166;7.312;2023-03-01T08:20:11;11.10;69.40
2873;DHT22;1444;49.166;7.312;2023-03-01T08:25:05;10.80;68.30
2873;DHT22;1444;49.166;7.312;2023-03-01T08:27:32;10.50;68.20
2873;DHT22;1444;49.166;7.312;2023-03-01T08:30:00;10.10;68.20
2873;DHT22;1444;49.166;7.312;2023-03-01T08:37:20;9.30;72.20
2873;DHT22;1444;49.166;7.312;2023-03-01T08:39:47;9.20;72.10
2873;DHT22;1444;49.166;7.312;2023-03-01T08:42:14;8.80;71.90
2873;DHT22;1444;49.166;7.312;2023-03-01T08:44:40;8.70;72.80
2873;DHT22;1444;49.166;7.312;2023-03-01T08:49:35;8.60;73.40
2873;DHT22;1444;49.166;7.312;2023-03-01T08:52:02;8.40;73.90
2873;DHT22;1444;49.166;7.312;2023-03-01T08:54:29;8.50;76.10
2873;DHT22;1444;49.166;7.312;2023-03-01T08:56:56;8.60;75.30
2873;DHT22;1444;49.166;7.312;2023-03-01T09:01:52;8.30;73.70
2873;DHT22;1444;49.166;7.312;2023-03-01T09:04:21;8.10;74.30
2873;DHT22;1444;49.166;7.312;2023-03-01T09:06:47;8.00;74.20
2873;DHT22;1444;49.166;7.312;2023-03-01T09:11:42;7.50;75.90
2873;DHT22;1444;49.166;7.312;2023-03-01T09:14:11;7.20;75.70
2873;DHT22;1444;49.166;7.312;2023-03-01T09:21:33;7.30;75.40
2873;DHT22;1444;49.166;7.312;2023-03-01T09:24:00;7.40;76.80
2873;DHT22;1444;49.166;7.312;2023-03-01T09:26:27;7.60;77.10
2873;DHT22;1444;49.166;7.312;2023-03-01T09:28:55;7.70;77.50
2873;DHT22;1444;49.166;7.312;2023-03-01T09:31:23;7.70;77.10
2873;DHT22;1444;49.166;7.312;2023-03-01T09:36:21;7.60;75.20
2873;DHT22;1444;49.166;7.312;2023-03-01T09:41:38;7.70;76.90
2873;DHT22;1444;49.166;7.312;2023-03-01T09:44:13;7.80;77.40
2873;DHT22;1444;49.166;7.312;2023-03-01T09:46:44;7.90;76.00
2873;DHT22;1444;49.166;7.312;2023-03-01T09:49:15;8.00;75.50
2873;DHT22;1444;49.166;7.312;2023-03-01T09:51:51;8.00;76.30
2873;DHT22;1444;49.166;7.312;2023-03-01T09:54:21;8.00;76.40
2873;DHT22;1444;49.166;7.312;2023-03-01T09:56:57;7.80;74.90
2873;DHT22;1444;49.166;7.312;2023-03-01T09:59:28;7.90;76.40
2873;DHT22;1444;49.166;7.312;2023-03-01T10:07:09;8.20;75.80
2873;DHT22;1444;49.166;7.312;2023-03-01T10:12:12;8.50;76.60
2873;DHT22;1444;49.166;7.312;2023-03-01T10:14:44;8.60;75.20
2873;DHT22;1444;49.166;7.312;2023-03-01T10:17:24;8.50;74.40
2873;DHT22;1444;49.166;7.312;2023-03-01T10:19:52;8.50;75.40
2873;DHT22;1444;49.166;7.312;2023-03-01T10:24:50;8.50;75.00
2873;DHT22;1444;49.166;7.312;2023-03-01T10:27:22;8.50;75.50
2873;DHT22;1444;49.166;7.312;2023-03-01T10:32:22;8.50;74.80
2873;DHT22;1444;49.166;7.312;2023-03-01T10:34:48;8.50;74.60
2873;DHT22;1444;49.166;7.312;2023-03-01T10:37:17;8.40;75.30
2873;DHT22;1444;49.166;7.312;2023-03-01T10:39:58;8.60;75.90
2873;DHT22;1444;49.166;7.312;2023-03-01T10:42:33;8.60;74.50
2873;DHT22;1444;49.166;7.312;2023-03-01T10:45:15;8.60;75.00
2873;DHT22;1444;49.166;7.312;2023-03-01T10:47:42;8.50;74.60
2873;DHT22;1444;49.166;7.312;2023-03-01T10:50:20;8.50;76.50
2873;DHT22;1444;49.166;7.312;2023-03-01T10:52:57;8.60;77.10
2873;DHT22;1444;49.166;7.312;2023-03-01T10:55:29;8.70;76.20
2873;DHT22;1444;49.166;7.312;2023-03-01T10:58:15;8.70;75.50
2873;DHT22;1444;49.166;7.312;2023-03-01T11:03:19;8.80;74.40
2873;DHT22;1444;49.166;7.312;2023-03-01T11:08:31;8.70;75.30
2873;DHT22;1444;49.166;7.312;2023-03-01T11:13:52;8.80;74.40
2873;DHT22;1444;49.166;7.312;2023-03-01T11:16:25;8.80;75.30
2873;DHT22;1444;49.166;7.312;2023-03-01T11:19:01;8.80;73.30
2873;DHT22;1444;49.166;7.312;2023-03-01T11:21:30;11.40;75.40
2873;DHT22;1444;49.166;7.312;2023-03-01T11:26:28;6.10;70.30
2873;DHT22;1444;49.166;7.312;2023-03-01T11:29:00;9.20;74.40
2873;DHT22;1444;49.166;7.312;2023-03-01T11:31:28;9.30;73.20
2873;DHT22;1444;49.166;7.312;2023-03-01T11:36:30;9.60;76.40
2873;DHT22;1444;49.166;7.312;2023-03-01T11:39:03;9.60;74.50
2873;DHT22;1444;49.166;7.312;2023-03-01T11:41:33;9.60;75.10
2873;DHT22;1444;49.166;7.312;2023-03-01T11:44:05;9.60;73.70
2873;DHT22;1444;49.166;7.312;2023-03-01T11:46:46;9.60;73.30
2873;DHT22;1444;49.166;7.312;2023-03-01T11:49:35;9.50;72.80
2873;DHT22;1444;49.166;7.312;2023-03-01T11:54:42;9.50;74.80
2873;DHT22;1444;49.166;7.312;2023-03-01T11:57:18;9.70;74.20
2873;DHT22;1444;49.166;7.312;2023-03-01T12:00:19;9.60;73.40
2873;DHT22;1444;49.166;7.312;2023-03-01T12:08:34;9.80;73.10
2873;DHT22;1444;49.166;7.312;2023-03-01T12:16:27;9.80;73.30
2873;DHT22;1444;49.166;7.312;2023-03-01T12:21:48;9.80;73.80
2873;DHT22;1444;49.166;7.312;2023-03-01T12:24:48;9.70;73.70
2873;DHT22;1444;49.166;7.312;2023-03-01T12:27:41;9.70;72.10
2873;DHT22;1444;49.166;7.312;2023-03-01T12:30:28;9.60;72.70
2873;DHT22;1444;49.166;7.312;2023-03-01T12:33:12;9.70;73.40
2873;DHT22;1444;49.166;7.312;2023-03-01T12:38:39;9.90;72.70
2873;DHT22;1444;49.166;7.312;2023-03-01T12:43:53;10.10;71.00
2873;DHT22;1444;49.166;7.312;2023-03-01T12:46:35;10.10;72.10
2873;DHT22;1444;49.166;7.312;2023-03-01T12:49:09;10.10;73.10
2873;DHT22;1444;49.166;7.312;2023-03-01T12:59:20;10.20;70.80
2873;DHT22;1444;49.166;7.312;2023-03-01T13:01:54;10.20;72.60
2873;DHT22;1444;49.166;7.312;2023-03-01T13:04:49;10.20;71.40
2873;DHT22;1444;49.166;7.312;2023-03-01T13:07:25;10.20;71.20
2873;DHT22;1444;49.166;7.312;2023-03-01T13:12:49;10.20;71.40
2873;DHT22;1444;49.166;7.312;2023-03-01T13:15:29;10.30;71.20
2873;DHT22;1444;49.166;7.312;2023-03-01T13:17:58;10.20;70.10
2873;DHT22;1444;49.166;7.312;2023-03-01T13:23:03;10.10;70.80
2873;DHT22;1444;49.166;7.312;2023-03-01T13:25:30;10.10;70.40
2873;DHT22;1444;49.166;7.312;2023-03-01T13:30:56;10.30;71.20
2873;DHT22;1444;49.166;7.312;2023-03-01T13:33:44;10.30;70.80
2873;DHT22;1444;49.166;7.312;2023-03-01T13:36:47;10.30;70.10
2873;DHT22;1444;49.166;7.312;2023-03-01T13:39:29;10.10;71.00
2873;DHT22;1444;49.166;7.312;2023-03-01T13:41:59;10.10;70.40
2873;DHT22;1444;49.166;7.312;2023-03-01T13:46:58;10.00;70.80
2873;DHT22;1444;49.166;7.312;2023-03-01T13:49:35;10.00;71.90
2873;DHT22;1444;49.166;7.312;2023-03-01T13:52:05;10.20;71.80
2873;DHT22;1444;49.166;7.312;2023-03-01T13:54:33;10.20;71.80
2873;DHT22;1444;49.166;7.312;2023-03-01T13:57:01;10.10;72.20
2873;DHT22;1444;49.166;7.312;2023-03-01T13:59:28;10.20;72.40
2873;DHT22;1444;49.166;7.312;2023-03-01T14:01:57;10.30;70.80
2873;DHT22;1444;49.166;7.312;2023-03-01T14:04:26;10.20;70.40
2873;DHT22;1444;49.166;7.312;2023-03-01T14:09:48;10.20;70.60
2873;DHT22;1444;49.166;7.312;2023-03-01T14:12:28;10.10;71.00
2873;DHT22;1444;49.166;7.312;2023-03-01T14:15:02;10.00;70.30
2873;DHT22;1444;49.166;7.312;2023-03-01T14:17:38;10.10;70.60
2873;DHT22;1444;49.166;7.312;2023-03-01T14:22:41;10.30;72.00
2873;DHT22;1444;49.166;7.312;2023-03-01T14:25:21;10.20;70.60
2873;DHT22;1444;49.166;7.312;2023-03-01T14:30:23;10.20;70.50
2873;DHT22;1444;49.166;7.312;2023-03-01T14:32:54;10.30;70.70
2873;DHT22;1444;49.166;7.312;2023-03-01T14:35:23;10.20;72.30
2873;DHT22;1444;49.166;7.312;2023-03-01T14:40:25;10.30;71.20
2873;DHT22;1444;49.166;7.312;2023-03-01T14:42:53;10.30;70.90
2873;DHT22;1444;49.166;7.312;2023-03-01T14:45:21;10.20;71.20
2873;DHT22;1444;49.166;7.312;2023-03-01T14:50:21;10.10;72.20
2873;DHT22;1444;49.166;7.312;2023-03-01T14:52:52;9.90;72.90
2873;DHT22;1444;49.166;7.312;2023-03-01T14:55:24;10.00;71.50
2873;DHT22;1444;49.166;7.312;2023-03-01T14:57:52;9.90;71.50
2873;DHT22;1444;49.166;7.312;2023-03-01T15:00:21;10.00;70.60
2873;DHT22;1444;49.166;7.312;2023-03-01T15:02:50;9.90;71.10
2873;DHT22;1444;49.166;7.312;2023-03-01T15:07:49;9.90;71.60
2873;DHT22;1444;49.166;7.312;2023-03-01T15:10:20;9.90;72.40
2873;DHT22;1444;49.166;7.312;2023-03-01T15:12:49;9.80;71.90
2873;DHT22;1444;49.166;7.312;2023-03-01T15:20:28;9.80;71.50
2873;DHT22;1444;49.166;7.312;2023-03-01T15:25:28;9.60;72.40
2873;DHT22;1444;49.166;7.312;2023-03-01T15:30:27;9.60;72.50
2873;DHT22;1444;49.166;7.312;2023-03-01T15:33:16;9.50;71.50
2873;DHT22;1444;49.166;7.312;2023-03-01T15:35:46;8.30;71.20
2873;DHT22;1444;49.166;7.312;2023-03-01T15:38:29;9.30;71.90
2873;DHT22;1444;49.166;7.312;2023-03-01T15:40:56;9.30;72.10
2873;DHT22;1444;49.166;7.312;2023-03-01T15:43:43;9.20;71.70
2873;DHT22;1444;49.166;7.312;2023-03-01T15:46:20;9.30;71.50
2873;DHT22;1444;49.166;7.312;2023-03-01T15:48:51;9.20;71.80
2873;DHT22;1444;49.166;7.312;2023-03-01T15:51:22;9.10;71.90
2873;DHT22;1444;49.166;7.312;2023-03-01T15:56:17;9.00;73.20
2873;DHT22;1444;49.166;7.312;2023-03-01T15:58:45;9.10;73.20
2873;DHT22;1444;49.166;7.312;2023-03-01T16:01:13;9.00;71.90
2873;DHT22;1444;49.166;7.312;2023-03-01T16:06:09;8.90;71.50
2873;DHT22;1444;49.166;7.312;2023-03-01T16:08:36;8.90;71.80
2873;DHT22;1444;49.166;7.312;2023-03-01T16:11:04;8.90;72.70
2873;DHT22;1444;49.166;7.312;2023-03-01T16:13:31;9.00;72.10
2873;DHT22;1444;49.166;7.312;2023-03-01T16:15:59;8.90;72.10
2873;DHT22;1444;49.166;7.312;2023-03-01T16:18:26;8.90;71.90
2873;DHT22;1444;49.166;7.312;2023-03-01T16:20:52;8.90;72.00
2873;DHT22;1444;49.166;7.312;2023-03-01T16:25:50;8.80;71.50
2873;DHT22;1444;49.166;7.312;2023-03-01T16:30:46;8.90;72.10
2873;DHT22;1444;49.166;7.312;2023-03-01T16:35:42;12.10;73.40
2873;DHT22;1444;49.166;7.312;2023-03-01T16:38:09;8.90;71.40
2873;DHT22;1444;49.166;7.312;2023-03-01T16:40:36;8.70;70.60
2873;DHT22;1444;49.166;7.312;2023-03-01T16:43:03;8.80;71.20
2873;DHT22;1444;49.166;7.312;2023-03-01T16:45:33;8.80;71.40
2873;DHT22;1444;49.166;7.312;2023-03-01T16:48:00;8.70;71.30
2873;DHT22;1444;49.166;7.312;2023-03-01T16:50:28;10.70;72.20
2873;DHT22;1444;49.166;7.312;2023-03-01T16:55:22;8.30;71.20
2873;DHT22;1444;49.166;7.312;2023-03-01T16:57:49;8.10;71.30
2873;DHT22;1444;49.166;7.312;2023-03-01T17:00:16;8.00;71.60
2873;DHT22;1444;49.166;7.312;2023-03-01T17:02:43;7.90;71.90
2873;DHT22;1444;49.166;7.312;2023-03-01T17:07:39;7.70;72.10
2873;DHT22;1444;49.166;7.312;2023-03-01T17:10:10;7.70;72.40
2873;DHT22;1444;49.166;7.312;2023-03-01T17:12:37;7.60;72.40
2873;DHT22;1444;49.166;7.312;2023-03-01T17:15:05;7.50;72.40
2873;DHT22;1444;49.166;7.312;2023-03-01T17:17:32;7.50;72.80
2873;DHT22;1444;49.166;7.312;2023-03-01T17:20:00;7.40;72.30
2873;DHT22;1444;49.166;7.312;2023-03-01T17:22:26;7.40;72.50
2873;DHT22;1444;49.166;7.312;2023-03-01T17:29:48;7.30;72.60
2873;DHT22;1444;49.166;7.312;2023-03-01T17:32:15;7.30;73.00
2873;DHT22;1444;49.166;7.312;2023-03-01T17:34:42;7.30;72.70
2873;DHT22;1444;49.166;7.312;2023-03-01T17:37:08;7.20;72.10
2873;DHT22;1444;49.166;7.312;2023-03-01T17:39:35;7.10;72.70
2873;DHT22;1444;49.166;7.312;2023-03-01T17:42:04;7.10;72.70
2873;DHT22;1444;49.166;7.312;2023-03-01T17:44:31;7.00;72.60
2873;DHT22;1444;49.166;7.312;2023-03-01T17:46:58;7.00;73.00
2873;DHT22;1444;49.166;7.312;2023-03-01T17:49:25;6.90;72.80
2873;DHT22;1444;49.166;7.312;2023-03-01T17:54:19;6.80;73.10
2873;DHT22;1444;49.166;7.312;2023-03-01T17:56:45;6.80;73.00
2873;DHT22;1444;49.166;7.312;2023-03-01T17:59:13;6.70;73.10
2873;DHT22;1444;49.166;7.312;2023-03-01T18:04:09;6.70;73.50
2873;DHT22;1444;49.166;7.312;2023-03-01T18:06:36;6.60;73.50
2873;DHT22;1444;49.166;7.312;2023-03-01T18:09:03;6.50;73.60
2873;DHT22;1444;49.166;7.312;2023-03-01T18:13:59;6.40;74.20
2873;DHT22;1444;49.166;7.312;2023-03-01T18:16:27;6.40;74.20
2873;DHT22;1444;49.166;7.312;2023-03-01T18:21:23;6.20;74.60
2873;DHT22;1444;49.166;7.312;2023-03-01T18:23:50;6.20;74.50
2873;DHT22;1444;49.166;7.312;2023-03-01T18:26:16;6.20;74.90
2873;DHT22;1444;49.166;7.312;2023-03-01T18:28:47;6.10;75.00
2873;DHT22;1444;49.166;7.312;2023-03-01T18:33:44;6.00;75.20
2873;DHT22;1444;49.166;7.312;2023-03-01T18:36:17;6.00;75.20
2873;DHT22;1444;49.166;7.312;2023-03-01T18:41:12;6.00;75.10
2873;DHT22;1444;49.166;7.312;2023-03-01T18:43:39;5.90;75.30
2873;DHT22;1444;49.166;7.312;2023-03-01T18:46:06;5.90;75.60
2873;DHT22;1444;49.166;7.312;2023-03-01T18:48:33;5.80;75.40
2873;DHT22;1444;49.166;7.312;2023-03-01T18:51:09;5.80;75.70
2873;DHT22;1444;49.166;7.312;2023-03-01T18:58:30;5.60;76.20
2873;DHT22;1444;49.166;7.312;2023-03-01T19:00:57;5.40;76.90
2873;DHT22;1444;49.166;7.312;2023-03-01T19:03:24;5.40;76.90
2873;DHT22;1444;49.166;7.312;2023-03-01T19:05:51;5.40;77.00
2873;DHT22;1444;49.166;7.312;2023-03-01T19:10:46;5.40;77.10
2873;DHT22;1444;49.166;7.312;2023-03-01T19:15:39;5.30;77.40
2873;DHT22;1444;49.166;7.312;2023-03-01T19:18:06;5.30;77.30
2873;DHT22;1444;49.166;7.312;2023-03-01T19:25:29;5.20;77.10
2873;DHT22;1444;49.166;7.312;2023-03-01T19:30:23;5.20;77.30
2873;DHT22;1444;49.166;7.312;2023-03-01T19:32:51;5.20;77.30
2873;DHT22;1444;49.166;7.312;2023-03-01T19:35:18;5.20;77.50
2873;DHT22;1444;49.166;7.312;2023-03-01T19:37:45;5.20;77.50
2873;DHT22;1444;49.166;7.312;2023-03-01T19:40:11;5.10;77.30
2873;DHT22;1444;49.166;7.312;2023-03-01T19:42:39;5.10;77.70
2873;DHT22;1444;49.166;7.312;2023-03-01T19:45:07;5.00;77.70
2873;DHT22;1444;49.166;7.312;2023-03-01T19:47:34;5.00;78.00
2873;DHT22;1444;49.166;7.312;2023-03-01T19:52:28;4.90;77.90
2873;DHT22;1444;49.166;7.312;2023-03-01T19:59:50;4.90;78.00
2873;DHT22;1444;49.166;7.312;2023-03-01T20:02:16;4.90;78.00
2873;DHT22;1444;49.166;7.312;2023-03-01T20:04:43;4.90;77.90
2873;DHT22;1444;49.166;7.312;2023-03-01T20:12:06;4.80;77.90
2873;DHT22;1444;49.166;7.312;2023-03-01T20:14:32;4.80;78.10
2873;DHT22;1444;49.166;7.312;2023-03-01T20:17:00;4.70;77.90
2873;DHT22;1444;49.166;7.312;2023-03-01T20:19:27;4.70;78.10
2873;DHT22;1444;49.166;7.312;2023-03-01T20:21:54;4.50;78.30
2873;DHT22;1444;49.166;7.312;2023-03-01T20:24:20;4.70;78.40
2873;DHT22;1444;49.166;7.312;2023-03-01T20:26:47;4.70;78.50
2873;DHT22;1444;49.166;7.312;2023-03-01T20:31:41;4.70;78.60
2873;DHT22;1444;49.166;7.312;2023-03-01T20:34:09;4.70;78.40
2873;DHT22;1444;49.166;7.312;2023-03-01T20:36:36;4.70;78.40
2873;DHT22;1444;49.166;7.312;2023-03-01T20:41:32;4.70;78.40
2873;DHT22;1444;49.166;7.312;2023-03-01T20:43:59;4.60;78.40
2873;DHT22;1444;49.166;7.312;2023-03-01T20:46:25;4.60;78.60
2873;DHT22;1444;49.166;7.312;2023-03-01T20:48:56;4.50;78.60
2873;DHT22;1444;49.166;7.312;2023-03-01T20:51:24;4.40;78.70
2873;DHT22;1444;49.166;7.312;2023-03-01T20:53:51;4.40;79.00
2873;DHT22;1444;49.166;7.312;2023-03-01T20:56:19;4.40;79.20
2873;DHT22;1444;49.166;7.312;2023-03-01T20:58:46;4.40;79.20
2873;DHT22;1444;49.166;7.312;2023-03-01T21:01:16;4.40;79.30
2873;DHT22;1444;49.166;7.312;2023-03-01T21:03:43;4.30;79.30
2873;DHT22;1444;49.166;7.312;2023-03-01T21:06:10;4.40;79.50
2873;DHT22;1444;49.166;7.312;2023-03-01T21:11:05;4.40;79.90
2873;DHT22;1444;49.166;7.312;2023-03-01T21:13:33;4.30;79.50
2873;DHT22;1444;49.166;7.312;2023-03-01T21:16:01;7.30;82.50
2873;DHT22;1444;49.166;7.312;2023-03-01T21:18:29;5.90;81.30
2873;DHT22;1444;49.166;7.312;2023-03-01T21:20:58;4.30;79.80
2873;DHT22;1444;49.166;7.312;2023-03-01T21:26:01;4.20;79.80
2873;DHT22;1444;49.166;7.312;2023-03-01T21:31:05;4.10;80.20
2873;DHT22;1444;49.166;7.312;2023-03-01T21:33:32;4.10;80.30
2873;DHT22;1444;49.166;7.312;2023-03-01T21:35:59;4.00;80.20
2873;DHT22;1444;49.166;7.312;2023-03-01T21:40:55;3.90;80.70
2873;DHT22;1444;49.166;7.312;2023-03-01T21:43:23;3.90;80.60